createdAt,value
2022-10-06T00:02:07.806Z,13.84
2022-10-06T00:04:35.487Z,13.77
2022-10-06T00:07:01.785Z,13.81
2022-10-06T00:09:28.079Z,13.82
2022-10-06T00:11:54.342Z,13.85
2022-10-06T00:14:20.727Z,13.84
2022-10-06T00:16:47.007Z,13.88
2022-10-06T00:19:13.293Z,13.84
2022-10-06T00:21:41.049Z,13.83
2022-10-06T00:24:07.336Z,13.76
2022-10-06T00:26:33.635Z,13.72
2022-10-06T00:28:59.923Z,13.69
2022-10-06T00:31:26.500Z,13.67
2022-10-06T00:33:52.830Z,13.66
2022-10-06T00:36:19.172Z,13.60
2022-10-06T00:38:46.834Z,13.59
2022-10-06T00:41:13.641Z,13.58
2022-10-06T00:43:44.780Z,13.50
2022-10-06T00:46:13.325Z,13.50
2022-10-06T00:48:39.775Z,13.48
2022-10-06T00:51:06.202Z,13.48
2022-10-06T00:53:33.165Z,13.44
2022-10-06T00:56:00.773Z,13.38
2022-10-06T00:58:27.457Z,13.36
2022-10-06T01:00:54.552Z,13.35
2022-10-06T01:03:23.858Z,13.38
2022-10-06T01:05:50.993Z,13.34
2022-10-06T01:08:17.679Z,13.32
2022-10-06T01:10:44.080Z,13.35
2022-10-06T01:13:12.041Z,13.36
2022-10-06T01:15:40.170Z,13.38
2022-10-06T01:18:10.200Z,13.36
2022-10-06T01:20:36.504Z,13.39
2022-10-06T01:23:06.111Z,13.34
2022-10-06T01:25:33.045Z,13.34
2022-10-06T01:28:01.465Z,13.32
2022-10-06T01:30:29.966Z,13.29
2022-10-06T01:32:56.272Z,13.27
2022-10-06T01:35:23.322Z,13.24
2022-10-06T01:37:49.625Z,13.22
2022-10-06T01:40:17.306Z,13.25
2022-10-06T01:42:43.596Z,13.22
2022-10-06T01:45:10.352Z,13.22
2022-10-06T01:47:36.645Z,13.25
2022-10-06T01:50:03.021Z,13.22
2022-10-06T01:52:29.299Z,13.19
2022-10-06T01:54:55.563Z,13.15
2022-10-06T01:57:26.445Z,13.09
2022-10-06T01:59:54.720Z,13.09
2022-10-06T02:02:21.408Z,13.05
2022-10-06T02:04:47.732Z,13.05
2022-10-06T02:07:14.167Z,13.04
2022-10-06T02:09:40.470Z,13.05
2022-10-06T02:12:06.755Z,12.97
2022-10-06T02:14:34.376Z,12.97
2022-10-06T02:17:00.688Z,12.95
2022-10-06T02:19:26.969Z,12.90
2022-10-06T02:21:53.263Z,12.84
2022-10-06T02:24:19.538Z,12.85
2022-10-06T02:26:45.821Z,12.82
2022-10-06T02:29:12.095Z,12.83
2022-10-06T02:31:39.735Z,12.79
2022-10-06T02:34:06.044Z,12.74
2022-10-06T02:36:32.325Z,12.71
2022-10-06T02:38:58.631Z,12.68
2022-10-06T02:41:24.981Z,12.64
2022-10-06T02:43:51.293Z,12.60
2022-10-06T02:46:17.609Z,12.56
2022-10-06T02:48:45.278Z,12.56
2022-10-06T02:51:12.295Z,12.50
2022-10-06T02:53:38.665Z,12.43
2022-10-06T02:56:06.236Z,12.39
2022-10-06T02:58:32.970Z,12.35
2022-10-06T03:01:02.486Z,12.32
2022-10-06T03:03:28.868Z,12.32
2022-10-06T03:05:59.933Z,12.30
2022-10-06T03:08:26.578Z,12.29
2022-10-06T03:10:58.854Z,12.28
2022-10-06T03:13:25.170Z,12.24
2022-10-06T03:15:51.554Z,12.19
2022-10-06T03:18:17.890Z,12.22
2022-10-06T03:20:44.167Z,12.18
2022-10-06T03:23:13.698Z,12.17
2022-10-06T03:25:40.083Z,12.13
2022-10-06T03:28:06.418Z,12.12
2022-10-06T03:30:32.757Z,12.06
2022-10-06T03:32:59.014Z,12.03
2022-10-06T03:35:25.313Z,12.02
2022-10-06T03:37:51.585Z,11.93
2022-10-06T03:40:19.212Z,11.85
2022-10-06T03:42:45.494Z,11.86
2022-10-06T03:45:11.810Z,11.84
2022-10-06T03:47:38.086Z,11.79
2022-10-06T03:50:04.584Z,11.77
2022-10-06T03:52:30.859Z,11.70
2022-10-06T03:54:57.164Z,11.67
2022-10-06T03:57:24.770Z,11.65
2022-10-06T03:59:51.060Z,11.67
2022-10-06T04:02:17.361Z,11.67
2022-10-06T04:04:43.648Z,11.66
2022-10-06T04:07:09.936Z,11.64
2022-10-06T04:09:36.219Z,11.63
2022-10-06T04:12:02.520Z,11.64
2022-10-06T04:14:30.136Z,11.63
2022-10-06T04:16:56.431Z,11.57
2022-10-06T04:19:22.821Z,11.51
2022-10-06T04:21:49.118Z,11.51
2022-10-06T04:24:15.418Z,11.49
2022-10-06T04:26:42.862Z,11.52
2022-10-06T04:29:09.136Z,11.48
2022-10-06T04:31:37.858Z,11.47
2022-10-06T04:34:04.820Z,11.41
2022-10-06T04:36:31.750Z,11.32
2022-10-06T04:38:59.104Z,11.27
2022-10-06T04:41:26.530Z,11.25
2022-10-06T04:43:52.846Z,11.18
2022-10-06T04:46:41.668Z,11.21
2022-10-06T04:49:07.928Z,11.21
2022-10-06T04:51:34.258Z,11.21
2022-10-06T04:54:00.552Z,11.22
2022-10-06T04:56:27.645Z,11.18
2022-10-06T04:58:55.069Z,11.16
2022-10-06T05:01:22.583Z,11.09
2022-10-06T05:03:49.923Z,11.04
2022-10-06T05:06:18.457Z,11.02
2022-10-06T05:08:47.381Z,10.95
2022-10-06T05:11:15.115Z,10.88
2022-10-06T05:13:43.173Z,10.87
2022-10-06T05:16:11.727Z,10.83
2022-10-06T05:18:38.241Z,10.79
2022-10-06T05:21:06.763Z,10.74
2022-10-06T05:23:36.858Z,10.69
2022-10-06T05:26:03.202Z,10.63
2022-10-06T05:28:30.865Z,10.60
2022-10-06T05:30:58.369Z,10.57
2022-10-06T05:33:25.285Z,10.61
2022-10-06T05:35:51.901Z,10.63
2022-10-06T05:38:18.185Z,10.64
2022-10-06T05:40:45.784Z,10.65
2022-10-06T05:43:12.079Z,10.67
2022-10-06T05:45:38.436Z,10.60
2022-10-06T05:48:04.772Z,10.57
2022-10-06T05:50:31.067Z,10.61
2022-10-06T05:52:57.337Z,10.58
2022-10-06T05:55:23.628Z,10.62
2022-10-06T05:57:53.936Z,10.61
2022-10-06T06:00:20.234Z,10.64
2022-10-06T06:02:46.594Z,10.62
2022-10-06T06:05:12.933Z,10.63
2022-10-06T06:07:39.216Z,10.65
2022-10-06T06:10:05.827Z,10.65
2022-10-06T06:12:32.084Z,10.66
2022-10-06T06:14:59.726Z,10.65
2022-10-06T06:17:25.994Z,10.67
2022-10-06T06:19:52.260Z,10.67
2022-10-06T06:22:18.567Z,10.70
2022-10-06T06:24:44.851Z,10.74
2022-10-06T06:27:11.154Z,10.76
2022-10-06T06:29:37.420Z,10.77
2022-10-06T06:32:05.047Z,10.80
2022-10-06T06:34:31.334Z,10.83
2022-10-06T06:37:00.145Z,10.85
2022-10-06T06:39:29.936Z,10.87
2022-10-06T06:41:56.213Z,10.88
2022-10-06T06:44:22.510Z,10.93
2022-10-06T06:46:48.779Z,10.95
2022-10-06T06:49:16.732Z,11.00
2022-10-06T06:51:43.732Z,11.02
2022-10-06T06:54:10.723Z,11.06
2022-10-06T06:56:37.167Z,11.09
2022-10-06T06:59:03.987Z,11.09
2022-10-06T07:01:30.421Z,11.14
2022-10-06T07:03:58.561Z,11.17
2022-10-06T07:06:28.205Z,11.20
2022-10-06T07:08:55.372Z,11.25
2022-10-06T07:11:22.858Z,11.28
2022-10-06T07:13:51.585Z,11.30
2022-10-06T07:16:18.292Z,11.37
2022-10-06T07:18:44.564Z,11.41
2022-10-06T07:21:11.488Z,11.45
2022-10-06T07:23:39.136Z,11.49
2022-10-06T07:26:05.567Z,11.53
2022-10-06T07:28:31.895Z,11.57
2022-10-06T07:30:58.423Z,11.62
2022-10-06T07:33:24.728Z,11.67
2022-10-06T07:35:51.029Z,11.72
2022-10-06T07:38:17.302Z,11.79
2022-10-06T07:40:50.484Z,11.84
2022-10-06T07:43:21.973Z,11.91
2022-10-06T07:45:48.370Z,11.97
2022-10-06T07:48:15.571Z,12.01
2022-10-06T07:50:42.057Z,12.09
2022-10-06T07:53:08.363Z,12.17
2022-10-06T07:55:35.077Z,12.22
2022-10-06T07:58:02.731Z,12.29
2022-10-06T08:00:29.072Z,12.35
2022-10-06T08:02:55.418Z,12.43
2022-10-06T08:05:21.873Z,12.46
2022-10-06T08:07:48.165Z,12.52
2022-10-06T08:10:14.440Z,12.59
2022-10-06T08:12:40.816Z,12.65
2022-10-06T08:15:09.644Z,12.71
2022-10-06T08:17:36.133Z,12.76
2022-10-06T08:20:02.511Z,12.83
2022-10-06T08:22:28.804Z,12.93
2022-10-06T08:25:05.796Z,13.00
2022-10-06T08:27:32.393Z,13.09
2022-10-06T08:29:58.684Z,13.12
2022-10-06T08:32:26.311Z,13.19
2022-10-06T08:34:52.852Z,13.29
2022-10-06T08:37:20.549Z,13.33
2022-10-06T08:39:47.010Z,13.44
2022-10-06T08:42:16.856Z,13.52
2022-10-06T08:44:44.828Z,13.60
2022-10-06T08:47:13.257Z,13.68
2022-10-06T08:49:42.882Z,13.76
2022-10-06T08:52:16.675Z,13.83
2022-10-06T08:54:47.615Z,13.88
2022-10-06T08:57:17.504Z,13.95
2022-10-06T08:59:44.935Z,14.01
2022-10-06T09:02:20.260Z,14.09
2022-10-06T09:04:47.908Z,14.15
2022-10-06T09:07:16.204Z,14.25
2022-10-06T09:09:46.577Z,14.29
2022-10-06T09:12:17.109Z,14.37
2022-10-06T09:14:45.981Z,14.43
2022-10-06T09:17:14.753Z,14.48
2022-10-06T09:19:43.297Z,14.50
2022-10-06T09:22:17.292Z,14.56
2022-10-06T09:24:47.190Z,14.62
2022-10-06T09:27:16.249Z,14.66
2022-10-06T09:29:42.563Z,14.70
2022-10-06T09:32:08.940Z,14.77
2022-10-06T09:34:37.274Z,14.86
2022-10-06T09:37:04.624Z,14.94
2022-10-06T09:39:33.248Z,14.98
2022-10-06T09:42:03.536Z,15.03
2022-10-06T09:44:31.237Z,15.08
2022-10-06T09:46:57.536Z,15.12
2022-10-06T09:49:24.345Z,15.15
2022-10-06T09:52:08.949Z,15.21
2022-10-06T09:54:36.562Z,15.26
2022-10-06T09:57:08.253Z,15.30
2022-10-06T09:59:39.991Z,15.28
2022-10-06T10:02:20.612Z,15.27
2022-10-06T10:04:51.374Z,15.34
2022-10-06T10:07:21.869Z,15.42
2022-10-06T10:09:49.516Z,15.46
2022-10-06T10:12:16.771Z,15.49
2022-10-06T10:14:43.062Z,15.57
2022-10-06T10:17:12.617Z,15.62
2022-10-06T10:19:39.153Z,15.62
2022-10-06T10:22:05.520Z,15.69
2022-10-06T10:24:45.294Z,15.71
2022-10-06T10:27:18.382Z,15.77
2022-10-06T10:29:59.759Z,15.80
2022-10-06T10:32:36.473Z,15.86
2022-10-06T10:35:06.524Z,15.91
2022-10-06T10:37:37.202Z,15.97
2022-10-06T10:40:07.645Z,16.00
2022-10-06T10:42:38.334Z,16.01
2022-10-06T10:45:07.194Z,15.98
2022-10-06T10:47:35.228Z,15.99
2022-10-06T10:50:05.956Z,15.98
2022-10-06T10:52:34.443Z,15.98
2022-10-06T10:55:05.939Z,15.94
2022-10-06T10:57:35.722Z,15.94
2022-10-06T11:00:04.960Z,15.92
2022-10-06T11:02:31.350Z,15.87
2022-10-06T11:05:14.698Z,15.91
2022-10-06T11:07:43.567Z,15.90
2022-10-06T11:10:12.896Z,15.84
2022-10-06T11:12:56.614Z,15.83
2022-10-06T11:15:29.990Z,15.80
2022-10-06T11:17:58.385Z,15.82
2022-10-06T11:20:31.940Z,15.83
2022-10-06T11:23:03.290Z,15.87
2022-10-06T11:25:35.951Z,15.82
2022-10-06T11:28:08.729Z,15.83
2022-10-06T11:30:53.101Z,15.77
2022-10-06T11:33:21.908Z,15.77
2022-10-06T11:35:48.705Z,15.77
2022-10-06T11:38:20.842Z,15.74
2022-10-06T11:40:51.451Z,15.73
2022-10-06T11:43:22.827Z,15.75
2022-10-06T11:46:04.519Z,15.84
2022-10-06T11:48:31.960Z,15.86
2022-10-06T11:51:26.966Z,15.78
2022-10-06T11:53:53.941Z,15.98
2022-10-06T11:56:38.161Z,15.98
2022-10-06T11:59:11.950Z,15.98
2022-10-06T12:01:51.133Z,15.96
2022-10-06T12:04:23.444Z,16.01
2022-10-06T12:06:55.092Z,16.02
2022-10-06T12:09:39.020Z,16.01
2022-10-06T12:12:26.714Z,16.10
2022-10-06T12:17:47.704Z,16.26
2022-10-06T12:20:16.804Z,16.31
2022-10-06T12:22:45.491Z,16.43
2022-10-06T12:25:16.148Z,16.47
2022-10-06T12:27:48.535Z,16.49
2022-10-06T12:30:19.550Z,16.55
2022-10-06T12:32:50.992Z,16.56
2022-10-06T12:35:24.984Z,16.53
2022-10-06T12:37:54.612Z,16.53
2022-10-06T12:40:39.906Z,16.50
2022-10-06T12:43:24.747Z,16.51
2022-10-06T12:45:55.154Z,16.40
2022-10-06T12:48:24.507Z,16.38
2022-10-06T12:50:54.588Z,16.34
2022-10-06T12:53:25.043Z,16.21
2022-10-06T12:55:52.616Z,16.26
2022-10-06T12:58:19.392Z,16.26
2022-10-06T13:00:46.361Z,16.23
2022-10-06T13:03:17.018Z,16.27
2022-10-06T13:05:48.822Z,16.27
2022-10-06T13:08:21.375Z,16.26
2022-10-06T13:10:47.655Z,16.24
2022-10-06T13:13:20.415Z,16.19
2022-10-06T13:15:46.724Z,16.21
2022-10-06T13:18:14.306Z,16.16
2022-10-06T13:20:41.793Z,16.19
2022-10-06T13:23:24.130Z,16.21
2022-10-06T13:25:52.937Z,16.23
2022-10-06T13:28:20.280Z,16.22
2022-10-06T13:30:49.395Z,16.17
2022-10-06T13:33:15.912Z,16.20
2022-10-06T13:35:42.403Z,16.19
2022-10-06T13:38:08.779Z,16.19
2022-10-06T13:40:44.502Z,16.13
2022-10-06T13:43:15.524Z,16.11
2022-10-06T13:45:42.358Z,16.14
2022-10-06T13:48:12.993Z,16.16
2022-10-06T13:50:44.421Z,16.14
2022-10-06T13:53:21.439Z,16.13
2022-10-06T13:55:49.953Z,16.15
2022-10-06T13:58:17.700Z,16.15
2022-10-06T14:00:48.448Z,16.16
2022-10-06T14:03:20.537Z,16.18
2022-10-06T14:05:46.854Z,16.19
2022-10-06T14:08:19.337Z,16.19
2022-10-06T14:10:47.027Z,16.20
2022-10-06T14:13:16.439Z,16.17
2022-10-06T14:15:46.045Z,16.21
2022-10-06T14:18:17.036Z,16.20
2022-10-06T14:20:44.536Z,16.22
2022-10-06T14:23:29.400Z,16.19
2022-10-06T14:25:55.670Z,16.20
2022-10-06T14:28:23.316Z,16.21
2022-10-06T14:30:49.766Z,16.17
2022-10-06T14:33:16.091Z,16.19
2022-10-06T14:35:42.575Z,16.21
2022-10-06T14:38:08.880Z,16.25
2022-10-06T14:40:35.509Z,16.23
2022-10-06T14:43:01.780Z,16.27
2022-10-06T14:45:29.455Z,16.31
2022-10-06T14:47:55.753Z,16.30
2022-10-06T14:50:22.053Z,16.42
2022-10-06T14:52:48.322Z,16.81
2022-10-06T14:55:14.608Z,17.01
2022-10-06T14:57:40.893Z,16.94
2022-10-06T15:00:08.098Z,16.76
2022-10-06T15:02:35.835Z,16.64
2022-10-06T15:05:02.171Z,16.56
2022-10-06T15:07:28.454Z,16.72
2022-10-06T15:09:54.751Z,16.79
2022-10-06T15:12:21.049Z,16.69
2022-10-06T15:14:47.331Z,16.61
2022-10-06T15:17:13.651Z,16.50
2022-10-06T15:19:41.267Z,16.41
2022-10-06T15:22:07.554Z,16.42
2022-10-06T15:24:33.850Z,16.51
2022-10-06T15:27:00.137Z,16.49
2022-10-06T15:29:26.689Z,16.52
2022-10-06T15:31:53.053Z,16.65
2022-10-06T15:34:20.570Z,16.63
2022-10-06T15:36:48.258Z,16.63
2022-10-06T15:39:15.464Z,16.61
2022-10-06T15:41:42.819Z,16.52
2022-10-06T15:44:11.886Z,16.41
2022-10-06T15:46:38.931Z,16.40
2022-10-06T15:49:06.184Z,16.42
2022-10-06T15:51:33.195Z,16.38
2022-10-06T15:54:00.849Z,16.51
2022-10-06T15:56:28.305Z,16.63
2022-10-06T15:58:54.734Z,16.54
2022-10-06T16:01:25.249Z,16.41
2022-10-06T16:03:51.556Z,16.26
2022-10-06T16:06:17.861Z,16.10
2022-10-06T16:08:44.163Z,15.95
2022-10-06T16:11:11.812Z,15.86
2022-10-06T16:13:38.100Z,15.81
2022-10-06T16:16:04.543Z,15.74
2022-10-06T16:18:31.309Z,15.67
2022-10-06T16:20:57.579Z,15.62
2022-10-06T16:23:23.875Z,15.66
2022-10-06T16:25:50.179Z,15.53
2022-10-06T16:28:17.809Z,15.37
2022-10-06T16:30:53.297Z,15.22
2022-10-06T16:33:19.623Z,15.08
2022-10-06T16:35:52.780Z,14.93
2022-10-06T16:38:19.051Z,14.80
2022-10-06T16:40:52.489Z,14.70
2022-10-06T16:43:20.108Z,14.56
2022-10-06T16:45:57.227Z,14.45
2022-10-06T16:48:27.912Z,14.35
2022-10-06T16:51:05.042Z,14.27
2022-10-06T16:53:38.536Z,14.17
2022-10-06T16:56:05.510Z,14.10
2022-10-06T16:58:37.226Z,14.04
2022-10-06T17:01:03.640Z,14.00
2022-10-06T17:03:30.064Z,13.94
2022-10-06T17:06:01.303Z,13.85
2022-10-06T17:08:27.583Z,13.79
2022-10-06T17:11:04.422Z,13.72
2022-10-06T17:13:30.911Z,13.67
2022-10-06T17:15:59.547Z,13.61
2022-10-06T17:18:25.942Z,13.55
2022-10-06T17:20:56.229Z,13.49
2022-10-06T17:23:22.516Z,13.46
2022-10-06T17:25:58.906Z,13.38
2022-10-06T17:28:25.223Z,13.31
2022-10-06T17:30:51.740Z,13.25
2022-10-06T17:33:19.393Z,13.19
2022-10-06T17:35:45.749Z,13.13
2022-10-06T17:38:14.324Z,13.08
2022-10-06T17:40:42.791Z,13.05
2022-10-06T17:43:09.129Z,12.99
2022-10-06T17:45:37.376Z,12.94
2022-10-06T17:48:03.671Z,12.86
2022-10-06T17:50:31.316Z,12.82
2022-10-06T17:52:57.623Z,12.75
2022-10-06T17:55:23.990Z,12.68
2022-10-06T17:57:50.316Z,12.62
2022-10-06T18:00:16.665Z,12.60
2022-10-06T18:02:43.618Z,12.56
2022-10-06T18:05:10.206Z,12.50
2022-10-06T18:07:37.956Z,12.46
2022-10-06T18:10:04.511Z,12.42
2022-10-06T18:12:30.811Z,12.38
2022-10-06T18:14:57.112Z,12.36
2022-10-06T18:17:23.418Z,12.31
2022-10-06T18:19:49.726Z,12.26
2022-10-06T18:22:16.008Z,12.21
2022-10-06T18:24:43.625Z,12.17
2022-10-06T18:27:09.954Z,12.14
2022-10-06T18:29:36.878Z,12.12
2022-10-06T18:37:36.369Z,12.01
2022-10-06T18:40:04.207Z,11.98
2022-10-06T18:42:30.520Z,11.93
2022-10-06T18:44:56.809Z,11.88
2022-10-06T18:47:23.077Z,11.81
2022-10-06T18:49:49.379Z,11.75
2022-10-06T18:52:15.673Z,11.72
2022-10-06T18:54:41.962Z,11.70
2022-10-06T18:57:09.773Z,11.65
2022-10-06T18:59:36.063Z,11.61
2022-10-06T19:02:02.406Z,11.58
2022-10-06T19:04:28.914Z,11.55
2022-10-06T19:06:55.395Z,11.47
2022-10-06T19:09:27.118Z,11.45
2022-10-06T19:11:55.076Z,11.41
2022-10-06T19:14:23.742Z,11.36
2022-10-06T19:16:51.529Z,11.30
2022-10-06T19:19:18.804Z,11.27
2022-10-06T19:21:46.633Z,11.24
2022-10-06T19:24:13.793Z,11.21
2022-10-06T19:26:45.132Z,11.19
2022-10-06T19:29:12.366Z,11.16
2022-10-06T19:31:42.685Z,11.12
2022-10-06T19:34:09.553Z,11.07
2022-10-06T19:36:35.921Z,11.03
2022-10-06T19:39:02.646Z,11.00
2022-10-06T19:41:28.970Z,10.97
2022-10-06T19:43:56.655Z,10.93
2022-10-06T19:46:22.993Z,10.89
2022-10-06T19:48:54.746Z,10.83
2022-10-06T19:51:21.014Z,10.73
2022-10-06T19:53:47.336Z,10.69
2022-10-06T19:56:13.635Z,10.71
2022-10-06T19:58:39.906Z,10.73
2022-10-06T20:01:06.414Z,10.74
2022-10-06T20:03:36.081Z,10.72
2022-10-06T20:06:03.899Z,10.68
2022-10-06T20:08:30.199Z,10.65
2022-10-06T20:11:01.130Z,10.60
2022-10-06T20:13:27.405Z,10.53
2022-10-06T20:15:53.676Z,10.45
2022-10-06T20:18:19.958Z,10.41
2022-10-06T20:20:55.070Z,10.36
2022-10-06T20:23:22.769Z,10.33
2022-10-06T20:25:49.060Z,10.33
2022-10-06T20:28:15.369Z,10.33
2022-10-06T20:30:41.726Z,10.34
2022-10-06T20:33:08.073Z,10.34
2022-10-06T20:35:34.355Z,10.33
2022-10-06T20:38:00.645Z,10.31
2022-10-06T20:40:28.256Z,10.31
2022-10-06T20:42:54.529Z,10.31
2022-10-06T20:45:20.824Z,10.33
2022-10-06T20:47:47.335Z,10.33
2022-10-06T20:50:13.916Z,10.33
2022-10-06T20:52:40.189Z,10.32
2022-10-06T20:55:07.250Z,10.30
2022-10-06T20:57:34.855Z,10.27
2022-10-06T21:00:01.124Z,10.19
2022-10-06T21:02:27.538Z,10.12
2022-10-06T21:04:53.927Z,10.07
2022-10-06T21:07:20.249Z,10.03
2022-10-06T21:09:51.264Z,10.02
2022-10-06T21:12:18.440Z,10.03
2022-10-06T21:14:46.143Z,10.02
2022-10-06T21:17:12.477Z,10.00
2022-10-06T21:19:38.818Z,9.99
2022-10-06T21:22:05.226Z,9.99
2022-10-06T21:24:31.563Z,10.00
2022-10-06T21:26:57.895Z,10.04
2022-10-06T21:29:24.228Z,10.05
2022-10-06T21:31:51.873Z,10.07
2022-10-06T21:34:18.187Z,10.06
2022-10-06T21:36:44.519Z,9.99
2022-10-06T21:39:11.190Z,9.98
2022-10-06T21:41:38.189Z,9.98
2022-10-06T21:44:05.464Z,9.98
2022-10-06T21:46:32.971Z,9.96
2022-10-06T21:49:01.427Z,9.88
2022-10-06T21:51:28.609Z,9.78
2022-10-06T21:53:55.323Z,9.76
2022-10-06T21:56:21.644Z,9.77
2022-10-06T21:58:48.197Z,9.71
2022-10-06T22:01:14.561Z,9.71
2022-10-06T22:03:40.890Z,9.71
2022-10-06T22:06:08.841Z,9.74
2022-10-06T22:08:36.844Z,9.80
2022-10-06T22:11:03.802Z,9.80
2022-10-06T22:13:30.109Z,9.77
2022-10-06T22:15:56.450Z,9.74
2022-10-06T22:18:22.790Z,9.71
2022-10-06T22:20:49.111Z,9.68
2022-10-06T22:23:16.828Z,9.68
2022-10-06T22:25:43.152Z,9.67
2022-10-06T22:28:09.529Z,9.71
2022-10-06T22:30:35.871Z,9.70
2022-10-06T22:33:02.192Z,9.66
2022-10-06T22:35:28.501Z,9.63
2022-10-06T22:37:54.815Z,9.61
2022-10-06T22:40:22.548Z,9.57
2022-10-06T22:42:48.883Z,9.51
2022-10-06T22:45:15.197Z,9.47
2022-10-06T22:47:41.831Z,9.45
2022-10-06T22:50:08.477Z,9.43
2022-10-06T22:52:34.800Z,9.46
2022-10-06T22:55:01.131Z,9.46
2022-10-06T22:57:28.815Z,9.46
2022-10-06T22:59:55.117Z,9.46
2022-10-06T23:02:21.443Z,9.49
2022-10-06T23:04:47.755Z,9.52
2022-10-06T23:07:14.083Z,9.56
2022-10-06T23:09:40.406Z,9.60
2022-10-06T23:12:06.724Z,9.61
2022-10-06T23:14:34.388Z,9.60
2022-10-06T23:17:00.712Z,9.59
2022-10-06T23:19:27.044Z,9.59
2022-10-06T23:21:53.359Z,9.58
2022-10-06T23:24:19.697Z,9.59
2022-10-06T23:26:46.012Z,9.57
2022-10-06T23:29:12.327Z,9.54
2022-10-06T23:31:40.090Z,9.54
2022-10-06T23:34:06.554Z,9.54
2022-10-06T23:36:32.894Z,9.55
2022-10-06T23:38:59.298Z,9.56
2022-10-06T23:41:25.643Z,9.54
2022-10-06T23:43:51.972Z,9.53
2022-10-06T23:46:18.355Z,9.52
2022-10-06T23:48:46.079Z,9.52
2022-10-06T23:51:13.394Z,9.52
2022-10-06T23:53:39.812Z,9.49
2022-10-06T23:56:06.265Z,9.47
2022-10-06T23:58:32.609Z,9.42
